sensor_id;sensor_type;location;lat;lon;timestamp;temperature;humidity
23100;DHT22;53791;50.696;4.396;2023-09-19T00:00:44;16.60;99.90
23100;DHT22;53791;50.696;4.396;2023-09-19T00:03:13;16.40;99.90
23100;DHT22;53791;50.696;4.396;2023-09-19T00:05:41;16.40;99.90
23100;DHT22;53791;50.696;4.396;2023-09-19T00:08:18;16.40;99.90
23100;DHT22;53791;50.696;4.396;2023-09-19T00:10:47;16.30;99.90
23100;DHT22;53791;50.696;4.396;2023-09-19T00:13:15;16.30;99.90
23100;DHT22;53791;50.696;4.396;2023-09-19T00:15:45;16.20;99.90
23100;DHT22;53791;50.696;4.396;2023-09-19T00:18:15;16.20;99.90
23100;DHT22;53791;50.696;4.396;2023-09-19T00:20:43;16.20;99.90
23100;DHT22;53791;50.696;4.396;2023-09-19T00:23:13;16.10;99.90
23100;DHT22;53791;50.696;4.396;2023-09-19T00:25:40;16.10;99.90
23100;DHT22;53791;50.696;4.396;2023-09-19T00:28:08;16.10;99.90
23100;DHT22;53791;50.696;4.396;2023-09-19T00:30:36;16.10;99.90
23100;DHT22;53791;50.696;4.396;2023-09-19T00:33:05;16.10;99.90
23100;DHT22;53791;50.696;4.396;2023-09-19T00:35:34;16.10;99.90
23100;DHT22;53791;50.696;4.396;2023-09-19T00:38:03;16.10;99.90
23100;DHT22;53791;50.696;4.396;2023-09-19T00:40:30;16.10;99.90
23100;DHT22;53791;50.696;4.396;2023-09-19T00:42:59;16.10;99.90
23100;DHT22;53791;50.696;4.396;2023-09-19T00:45:27;16.00;99.90
23100;DHT22;53791;50.696;4.396;2023-09-19T00:47:55;16.00;99.90
23100;DHT22;53791;50.696;4.396;2023-09-19T00:50:26;16.00;99.90
23100;DHT22;53791;50.696;4.396;2023-09-19T00:52:54;15.90;99.90
23100;DHT22;53791;50.696;4.396;2023-09-19T00:55:26;15.90;99.90
23100;DHT22;53791;50.696;4.396;2023-09-19T00:57:56;15.90;99.90
23100;DHT22;53791;50.696;4.396;2023-09-19T01:00:25;15.90;99.90
23100;DHT22;53791;50.696;4.396;2023-09-19T01:02:53;15.90;99.90
23100;DHT22;53791;50.696;4.396;2023-09-19T01:05:21;15.90;99.90
23100;DHT22;53791;50.696;4.396;2023-09-19T01:07:50;15.90;99.90
23100;DHT22;53791;50.696;4.396;2023-09-19T01:10:20;15.90;99.90
23100;DHT22;53791;50.696;4.396;2023-09-19T01:13:01;15.90;99.90
23100;DHT22;53791;50.696;4.396;2023-09-19T01:15:47;15.70;99.90
23100;DHT22;53791;50.696;4.396;2023-09-19T01:20:53;15.80;99.90
23100;DHT22;53791;50.696;4.396;2023-09-19T01:23:23;15.80;99.90
23100;DHT22;53791;50.696;4.396;2023-09-19T01:26:18;15.80;99.90
23100;DHT22;53791;50.696;4.396;2023-09-19T01:28:52;15.70;99.90
23100;DHT22;53791;50.696;4.396;2023-09-19T01:31:19;15.60;99.90
23100;DHT22;53791;50.696;4.396;2023-09-19T01:34:02;15.60;99.90
23100;DHT22;53791;50.696;4.396;2023-09-19T01:36:29;15.70;99.90
23100;DHT22;53791;50.696;4.396;2023-09-19T01:38:57;15.70;99.90
23100;DHT22;53791;50.696;4.396;2023-09-19T01:44:09;15.80;99.90
23100;DHT22;53791;50.696;4.396;2023-09-19T01:46:39;15.70;99.90
23100;DHT22;53791;50.696;4.396;2023-09-19T01:49:15;15.70;99.90
23100;DHT22;53791;50.696;4.396;2023-09-19T01:52:12;15.70;99.90
23100;DHT22;53791;50.696;4.396;2023-09-19T01:54:41;15.80;99.90
23100;DHT22;53791;50.696;4.396;2023-09-19T01:57:28;15.80;99.90
23100;DHT22;53791;50.696;4.396;2023-09-19T02:00:06;15.80;99.90
23100;DHT22;53791;50.696;4.396;2023-09-19T02:02:35;15.80;99.90
23100;DHT22;53791;50.696;4.396;2023-09-19T02:05:04;15.80;99.90
23100;DHT22;53791;50.696;4.396;2023-09-19T02:07:33;15.80;99.90
23100;DHT22;53791;50.696;4.396;2023-09-19T02:10:02;15.80;99.90
23100;DHT22;53791;50.696;4.396;2023-09-19T02:12:33;15.80;99.90
23100;DHT22;53791;50.696;4.396;2023-09-19T02:15:02;15.70;99.90
23100;DHT22;53791;50.696;4.396;2023-09-19T02:17:29;15.80;99.90
23100;DHT22;53791;50.696;4.396;2023-09-19T02:19:57;15.80;99.90
23100;DHT22;53791;50.696;4.396;2023-09-19T02:22:27;15.70;99.90
23100;DHT22;53791;50.696;4.396;2023-09-19T02:24:55;15.70;99.90
23100;DHT22;53791;50.696;4.396;2023-09-19T02:27:25;15.70;99.90
23100;DHT22;53791;50.696;4.396;2023-09-19T02:29:52;15.70;99.90
23100;DHT22;53791;50.696;4.396;2023-09-19T02:32:20;15.70;99.90
23100;DHT22;53791;50.696;4.396;2023-09-19T02:34:50;15.70;99.90
23100;DHT22;53791;50.696;4.396;2023-09-19T02:37:18;15.80;99.90
23100;DHT22;53791;50.696;4.396;2023-09-19T02:39:46;15.70;99.90
23100;DHT22;53791;50.696;4.396;2023-09-19T02:42:13;15.70;99.90
23100;DHT22;53791;50.696;4.396;2023-09-19T02:44:41;15.70;99.90
23100;DHT22;53791;50.696;4.396;2023-09-19T02:47:09;15.80;99.90
23100;DHT22;53791;50.696;4.396;2023-09-19T02:49:36;15.70;99.90
23100;DHT22;53791;50.696;4.396;2023-09-19T02:52:04;15.60;99.90
23100;DHT22;53791;50.696;4.396;2023-09-19T02:54:34;15.70;99.90
23100;DHT22;53791;50.696;4.396;2023-09-19T02:57:01;15.80;99.90
23100;DHT22;53791;50.696;4.396;2023-09-19T02:59:32;15.50;99.90
23100;DHT22;53791;50.696;4.396;2023-09-19T03:02:01;15.50;99.90
23100;DHT22;53791;50.696;4.396;2023-09-19T03:04:29;15.30;99.90
23100;DHT22;53791;50.696;4.396;2023-09-19T03:06:57;15.30;99.90
23100;DHT22;53791;50.696;4.396;2023-09-19T03:09:26;15.30;99.90
23100;DHT22;53791;50.696;4.396;2023-09-19T03:11:54;15.30;99.90
23100;DHT22;53791;50.696;4.396;2023-09-19T03:14:22;15.30;99.90
23100;DHT22;53791;50.696;4.396;2023-09-19T03:16:50;15.20;99.90
23100;DHT22;53791;50.696;4.396;2023-09-19T03:19:18;15.20;99.90
23100;DHT22;53791;50.696;4.396;2023-09-19T03:21:47;15.30;99.90
23100;DHT22;53791;50.696;4.396;2023-09-19T03:24:15;15.30;99.90
23100;DHT22;53791;50.696;4.396;2023-09-19T03:26:43;15.40;99.90
23100;DHT22;53791;50.696;4.396;2023-09-19T03:29:11;15.40;99.90
23100;DHT22;53791;50.696;4.396;2023-09-19T03:31:40;15.40;99.90
23100;DHT22;53791;50.696;4.396;2023-09-19T03:34:09;15.40;99.90
23100;DHT22;53791;50.696;4.396;2023-09-19T03:36:37;15.50;99.90
23100;DHT22;53791;50.696;4.396;2023-09-19T03:39:04;15.50;99.90
23100;DHT22;53791;50.696;4.396;2023-09-19T03:41:32;15.50;99.90
23100;DHT22;53791;50.696;4.396;2023-09-19T03:44:01;15.50;99.90
23100;DHT22;53791;50.696;4.396;2023-09-19T03:46:29;15.50;99.90
23100;DHT22;53791;50.696;4.396;2023-09-19T03:48:56;15.50;99.90
23100;DHT22;53791;50.696;4.396;2023-09-19T03:51:24;15.50;99.90
23100;DHT22;53791;50.696;4.396;2023-09-19T03:53:51;15.50;99.90
23100;DHT22;53791;50.696;4.396;2023-09-19T03:56:19;15.70;99.90
23100;DHT22;53791;50.696;4.396;2023-09-19T03:58:47;15.60;99.90
23100;DHT22;53791;50.696;4.396;2023-09-19T04:01:15;15.70;99.90
23100;DHT22;53791;50.696;4.396;2023-09-19T04:03:43;15.50;99.90
23100;DHT22;53791;50.696;4.396;2023-09-19T04:06:14;15.50;99.90
23100;DHT22;53791;50.696;4.396;2023-09-19T04:08:42;15.50;99.90
23100;DHT22;53791;50.696;4.396;2023-09-19T04:11:10;15.60;99.90
23100;DHT22;53791;50.696;4.396;2023-09-19T04:13:38;15.60;99.90
23100;DHT22;53791;50.696;4.396;2023-09-19T04:16:06;15.60;99.90
23100;DHT22;53791;50.696;4.396;2023-09-19T04:18:36;15.60;99.90
23100;DHT22;53791;50.696;4.396;2023-09-19T04:21:06;15.50;99.90
23100;DHT22;53791;50.696;4.396;2023-09-19T04:23:34;15.40;99.90
23100;DHT22;53791;50.696;4.396;2023-09-19T04:26:01;15.50;99.90
23100;DHT22;53791;50.696;4.396;2023-09-19T04:28:31;15.40;99.90
23100;DHT22;53791;50.696;4.396;2023-09-19T04:31:03;15.40;99.90
23100;DHT22;53791;50.696;4.396;2023-09-19T04:33:31;15.40;99.90
23100;DHT22;53791;50.696;4.396;2023-09-19T04:36:01;15.40;99.90
23100;DHT22;53791;50.696;4.396;2023-09-19T04:38:35;15.30;99.90
23100;DHT22;53791;50.696;4.396;2023-09-19T04:41:03;15.30;99.90
23100;DHT22;53791;50.696;4.396;2023-09-19T04:43:31;15.30;99.90
23100;DHT22;53791;50.696;4.396;2023-09-19T04:45:58;15.30;99.90
23100;DHT22;53791;50.696;4.396;2023-09-19T04:48:26;15.30;99.90
23100;DHT22;53791;50.696;4.396;2023-09-19T04:50:55;15.40;99.90
23100;DHT22;53791;50.696;4.396;2023-09-19T04:53:23;15.30;99.90
23100;DHT22;53791;50.696;4.396;2023-09-19T04:55:51;15.30;99.90
23100;DHT22;53791;50.696;4.396;2023-09-19T04:58:19;15.30;99.90
23100;DHT22;53791;50.696;4.396;2023-09-19T05:00:47;15.30;99.90
23100;DHT22;53791;50.696;4.396;2023-09-19T05:03:14;15.20;99.90
23100;DHT22;53791;50.696;4.396;2023-09-19T05:05:42;15.30;99.90
23100;DHT22;53791;50.696;4.396;2023-09-19T05:08:10;15.30;99.90
23100;DHT22;53791;50.696;4.396;2023-09-19T05:10:39;15.30;99.90
23100;DHT22;53791;50.696;4.396;2023-09-19T05:13:07;15.20;99.90
23100;DHT22;53791;50.696;4.396;2023-09-19T05:15:34;15.20;99.90
23100;DHT22;53791;50.696;4.396;2023-09-19T05:18:02;15.20;99.90
23100;DHT22;53791;50.696;4.396;2023-09-19T05:20:30;15.20;99.90
23100;DHT22;53791;50.696;4.396;2023-09-19T05:23:06;15.20;99.90
23100;DHT22;53791;50.696;4.396;2023-09-19T05:25:39;15.20;99.90
23100;DHT22;53791;50.696;4.396;2023-09-19T05:28:08;15.20;99.90
23100;DHT22;53791;50.696;4.396;2023-09-19T05:30:37;15.20;99.90
23100;DHT22;53791;50.696;4.396;2023-09-19T05:33:05;15.10;99.90
23100;DHT22;53791;50.696;4.396;2023-09-19T05:35:34;15.10;99.90
23100;DHT22;53791;50.696;4.396;2023-09-19T05:38:03;15.10;99.90
23100;DHT22;53791;50.696;4.396;2023-09-19T05:40:32;15.10;99.90
23100;DHT22;53791;50.696;4.396;2023-09-19T05:42:59;15.20;99.90
23100;DHT22;53791;50.696;4.396;2023-09-19T05:45:27;15.20;99.90
23100;DHT22;53791;50.696;4.396;2023-09-19T05:47:54;15.20;99.90
23100;DHT22;53791;50.696;4.396;2023-09-19T05:50:24;15.20;99.90
23100;DHT22;53791;50.696;4.396;2023-09-19T05:52:54;15.10;99.90
23100;DHT22;53791;50.696;4.396;2023-09-19T05:55:37;15.20;99.90
23100;DHT22;53791;50.696;4.396;2023-09-19T05:58:05;15.20;99.90
23100;DHT22;53791;50.696;4.396;2023-09-19T06:00:32;15.20;99.90
23100;DHT22;53791;50.696;4.396;2023-09-19T06:03:00;15.20;99.90
23100;DHT22;53791;50.696;4.396;2023-09-19T06:05:28;15.30;99.90
23100;DHT22;53791;50.696;4.396;2023-09-19T06:07:57;15.30;99.90
23100;DHT22;53791;50.696;4.396;2023-09-19T06:10:26;15.20;99.90
23100;DHT22;53791;50.696;4.396;2023-09-19T06:12:58;15.30;99.90
23100;DHT22;53791;50.696;4.396;2023-09-19T06:15:26;15.30;99.90
23100;DHT22;53791;50.696;4.396;2023-09-19T06:17:55;15.30;99.90
23100;DHT22;53791;50.696;4.396;2023-09-19T06:23:46;15.30;99.90
23100;DHT22;53791;50.696;4.396;2023-09-19T06:26:13;15.30;99.90
23100;DHT22;53791;50.696;4.396;2023-09-19T06:28:41;15.40;99.90
23100;DHT22;53791;50.696;4.396;2023-09-19T06:31:09;15.40;99.90
23100;DHT22;53791;50.696;4.396;2023-09-19T06:33:37;15.50;99.90
23100;DHT22;53791;50.696;4.396;2023-09-19T06:36:09;15.60;99.90
23100;DHT22;53791;50.696;4.396;2023-09-19T06:38:37;15.50;99.90
23100;DHT22;53791;50.696;4.396;2023-09-19T06:41:06;15.60;99.90
23100;DHT22;53791;50.696;4.396;2023-09-19T06:43:35;15.60;99.90
23100;DHT22;53791;50.696;4.396;2023-09-19T06:46:08;15.60;99.90
23100;DHT22;53791;50.696;4.396;2023-09-19T06:48:36;15.60;99.90
23100;DHT22;53791;50.696;4.396;2023-09-19T06:51:03;15.60;99.90
23100;DHT22;53791;50.696;4.396;2023-09-19T06:53:33;15.60;99.90
23100;DHT22;53791;50.696;4.396;2023-09-19T06:56:04;15.60;99.90
23100;DHT22;53791;50.696;4.396;2023-09-19T06:58:32;15.60;99.90
23100;DHT22;53791;50.696;4.396;2023-09-19T07:01:01;15.70;99.90
23100;DHT22;53791;50.696;4.396;2023-09-19T07:03:29;15.70;99.90
23100;DHT22;53791;50.696;4.396;2023-09-19T07:05:59;15.70;99.90
23100;DHT22;53791;50.696;4.396;2023-09-19T07:08:26;15.80;99.90
23100;DHT22;53791;50.696;4.396;2023-09-19T07:10:56;15.70;99.90
23100;DHT22;53791;50.696;4.396;2023-09-19T07:13:23;15.80;99.90
23100;DHT22;53791;50.696;4.396;2023-09-19T07:15:51;15.70;99.90
23100;DHT22;53791;50.696;4.396;2023-09-19T07:18:19;15.80;99.90
23100;DHT22;53791;50.696;4.396;2023-09-19T07:20:47;15.90;99.90
23100;DHT22;53791;50.696;4.396;2023-09-19T07:23:18;15.90;99.90
23100;DHT22;53791;50.696;4.396;2023-09-19T07:25:49;15.90;99.90
23100;DHT22;53791;50.696;4.396;2023-09-19T07:28:16;16.00;99.90
23100;DHT22;53791;50.696;4.396;2023-09-19T07:30:44;16.00;99.90
23100;DHT22;53791;50.696;4.396;2023-09-19T07:33:12;16.20;99.90
23100;DHT22;53791;50.696;4.396;2023-09-19T07:35:40;16.20;99.90
23100;DHT22;53791;50.696;4.396;2023-09-19T07:38:08;16.30;99.90
23100;DHT22;53791;50.696;4.396;2023-09-19T07:40:37;16.30;99.90
23100;DHT22;53791;50.696;4.396;2023-09-19T07:43:05;16.50;99.90
23100;DHT22;53791;50.696;4.396;2023-09-19T07:45:33;16.50;99.90
23100;DHT22;53791;50.696;4.396;2023-09-19T07:48:02;16.50;99.90
23100;DHT22;53791;50.696;4.396;2023-09-19T07:50:34;16.60;99.90
23100;DHT22;53791;50.696;4.396;2023-09-19T07:53:04;16.60;99.90
23100;DHT22;53791;50.696;4.396;2023-09-19T07:55:31;16.60;99.90
23100;DHT22;53791;50.696;4.396;2023-09-19T07:58:00;16.60;99.90
23100;DHT22;53791;50.696;4.396;2023-09-19T08:00:29;16.70;99.90
23100;DHT22;53791;50.696;4.396;2023-09-19T08:02:58;16.70;99.90
23100;DHT22;53791;50.696;4.396;2023-09-19T08:05:26;16.80;99.90
23100;DHT22;53791;50.696;4.396;2023-09-19T08:07:54;16.90;99.90
23100;DHT22;53791;50.696;4.396;2023-09-19T08:10:23;17.10;99.90
23100;DHT22;53791;50.696;4.396;2023-09-19T08:12:52;17.00;99.90
23100;DHT22;53791;50.696;4.396;2023-09-19T08:15:21;17.00;99.90
23100;DHT22;53791;50.696;4.396;2023-09-19T08:17:49;17.00;99.90
23100;DHT22;53791;50.696;4.396;2023-09-19T08:20:17;17.10;99.90
23100;DHT22;53791;50.696;4.396;2023-09-19T08:22:52;17.20;99.90
23100;DHT22;53791;50.696;4.396;2023-09-19T08:25:23;17.10;99.90
23100;DHT22;53791;50.696;4.396;2023-09-19T08:27:52;16.80;99.90
23100;DHT22;53791;50.696;4.396;2023-09-19T08:30:24;16.90;99.90
23100;DHT22;53791;50.696;4.396;2023-09-19T08:33:00;17.00;99.90
23100;DHT22;53791;50.696;4.396;2023-09-19T08:35:30;17.10;99.90
23100;DHT22;53791;50.696;4.396;2023-09-19T08:37:58;17.10;99.90
23100;DHT22;53791;50.696;4.396;2023-09-19T08:40:27;17.10;99.90
23100;DHT22;53791;50.696;4.396;2023-09-19T08:42:56;17.30;99.90
23100;DHT22;53791;50.696;4.396;2023-09-19T08:45:25;17.30;99.90
23100;DHT22;53791;50.696;4.396;2023-09-19T08:48:08;17.30;99.90
23100;DHT22;53791;50.696;4.396;2023-09-19T08:50:36;17.30;99.90
23100;DHT22;53791;50.696;4.396;2023-09-19T08:53:10;17.40;99.90
23100;DHT22;53791;50.696;4.396;2023-09-19T08:55:34;17.40;99.90
23100;DHT22;53791;50.696;4.396;2023-09-19T08:58:04;17.40;99.90
23100;DHT22;53791;50.696;4.396;2023-09-19T09:00:34;17.60;99.90
23100;DHT22;53791;50.696;4.396;2023-09-19T09:03:03;17.70;99.90
23100;DHT22;53791;50.696;4.396;2023-09-19T09:05:33;17.70;99.90
23100;DHT22;53791;50.696;4.396;2023-09-19T09:08:05;17.80;99.90
23100;DHT22;53791;50.696;4.396;2023-09-19T09:10:32;17.90;99.90
23100;DHT22;53791;50.696;4.396;2023-09-19T09:13:01;18.00;99.90
23100;DHT22;53791;50.696;4.396;2023-09-19T09:15:30;18.10;99.90
23100;DHT22;53791;50.696;4.396;2023-09-19T09:17:59;18.10;99.90
23100;DHT22;53791;50.696;4.396;2023-09-19T09:20:26;18.20;99.90
23100;DHT22;53791;50.696;4.396;2023-09-19T09:22:55;18.10;99.90
23100;DHT22;53791;50.696;4.396;2023-09-19T09:28:11;18.20;99.90
23100;DHT22;53791;50.696;4.396;2023-09-19T09:30:39;18.10;99.90
23100;DHT22;53791;50.696;4.396;2023-09-19T09:33:11;18.10;99.90
23100;DHT22;53791;50.696;4.396;2023-09-19T09:35:55;18.20;99.90
23100;DHT22;53791;50.696;4.396;2023-09-19T09:38:46;18.40;99.90
23100;DHT22;53791;50.696;4.396;2023-09-19T09:41:16;18.10;99.90
23100;DHT22;53791;50.696;4.396;2023-09-19T09:43:45;18.00;99.90
23100;DHT22;53791;50.696;4.396;2023-09-19T09:46:16;18.10;99.90
23100;DHT22;53791;50.696;4.396;2023-09-19T09:48:57;18.10;99.90
23100;DHT22;53791;50.696;4.396;2023-09-19T09:51:47;18.20;99.90
23100;DHT22;53791;50.696;4.396;2023-09-19T09:54:17;18.20;99.90
23100;DHT22;53791;50.696;4.396;2023-09-19T09:57:05;18.20;99.90
23100;DHT22;53791;50.696;4.396;2023-09-19T10:02:35;18.20;99.90
23100;DHT22;53791;50.696;4.396;2023-09-19T10:05:18;18.20;99.90
23100;DHT22;53791;50.696;4.396;2023-09-19T10:07:51;18.30;99.90
23100;DHT22;53791;50.696;4.396;2023-09-19T10:10:34;18.20;99.90
23100;DHT22;53791;50.696;4.396;2023-09-19T10:13:14;18.30;99.90
23100;DHT22;53791;50.696;4.396;2023-09-19T10:15:51;18.40;99.90
23100;DHT22;53791;50.696;4.396;2023-09-19T10:18:21;18.50;99.90
23100;DHT22;53791;50.696;4.396;2023-09-19T10:20:49;18.50;99.90
23100;DHT22;53791;50.696;4.396;2023-09-19T10:23:21;18.60;99.90
23100;DHT22;53791;50.696;4.396;2023-09-19T10:25:50;18.60;99.90
23100;DHT22;53791;50.696;4.396;2023-09-19T10:28:19;18.60;99.90
23100;DHT22;53791;50.696;4.396;2023-09-19T10:30:51;18.60;99.90
23100;DHT22;53791;50.696;4.396;2023-09-19T10:33:21;18.70;99.90
23100;DHT22;53791;50.696;4.396;2023-09-19T10:35:50;18.70;99.90
23100;DHT22;53791;50.696;4.396;2023-09-19T10:38:25;18.90;99.90
23100;DHT22;53791;50.696;4.396;2023-09-19T10:40:56;18.90;99.90
23100;DHT22;53791;50.696;4.396;2023-09-19T10:43:31;19.00;99.90
23100;DHT22;53791;50.696;4.396;2023-09-19T10:46:05;19.10;99.90
23100;DHT22;53791;50.696;4.396;2023-09-19T10:48:32;19.10;99.90
23100;DHT22;53791;50.696;4.396;2023-09-19T10:51:02;19.20;99.90
23100;DHT22;53791;50.696;4.396;2023-09-19T10:54:01;19.30;99.90
23100;DHT22;53791;50.696;4.396;2023-09-19T10:56:34;19.40;99.90
23100;DHT22;53791;50.696;4.396;2023-09-19T10:59:11;19.40;99.90
23100;DHT22;53791;50.696;4.396;2023-09-19T11:01:48;19.30;99.90
23100;DHT22;53791;50.696;4.396;2023-09-19T11:04:33;19.40;99.90
23100;DHT22;53791;50.696;4.396;2023-09-19T11:07:04;19.30;99.90
23100;DHT22;53791;50.696;4.396;2023-09-19T11:09:52;19.40;99.90
23100;DHT22;53791;50.696;4.396;2023-09-19T11:15:08;19.60;99.90
23100;DHT22;53791;50.696;4.396;2023-09-19T11:17:41;19.60;99.90
23100;DHT22;53791;50.696;4.396;2023-09-19T11:20:19;19.70;99.90
23100;DHT22;53791;50.696;4.396;2023-09-19T11:25:41;19.80;99.90
23100;DHT22;53791;50.696;4.396;2023-09-19T11:30:46;19.80;99.90
23100;DHT22;53791;50.696;4.396;2023-09-19T11:33:28;19.90;99.90
23100;DHT22;53791;50.696;4.396;2023-09-19T11:36:01;20.10;99.90
23100;DHT22;53791;50.696;4.396;2023-09-19T11:46:53;20.20;99.90
23100;DHT22;53791;50.696;4.396;2023-09-19T11:49:29;20.20;99.90
23100;DHT22;53791;50.696;4.396;2023-09-19T11:51:59;20.20;99.90
23100;DHT22;53791;50.696;4.396;2023-09-19T11:54:31;20.10;99.90
23100;DHT22;53791;50.696;4.396;2023-09-19T11:57:00;20.10;99.90
23100;DHT22;53791;50.696;4.396;2023-09-19T11:59:30;20.20;99.90
23100;DHT22;53791;50.696;4.396;2023-09-19T12:02:01;20.20;99.90
23100;DHT22;53791;50.696;4.396;2023-09-19T12:04:42;20.00;99.90
23100;DHT22;53791;50.696;4.396;2023-09-19T12:07:13;19.90;99.90
23100;DHT22;53791;50.696;4.396;2023-09-19T12:09:49;19.70;99.90
23100;DHT22;53791;50.696;4.396;2023-09-19T12:12:24;19.80;99.90
23100;DHT22;53791;50.696;4.396;2023-09-19T12:14:54;19.90;99.90
23100;DHT22;53791;50.696;4.396;2023-09-19T12:17:34;20.00;99.90
23100;DHT22;53791;50.696;4.396;2023-09-19T12:22:28;19.90;99.90
23100;DHT22;53791;50.696;4.396;2023-09-19T12:25:07;19.90;99.90
23100;DHT22;53791;50.696;4.396;2023-09-19T12:27:49;19.60;99.90
23100;DHT22;53791;50.696;4.396;2023-09-19T12:30:29;19.60;99.90
23100;DHT22;53791;50.696;4.396;2023-09-19T12:32:58;19.50;99.90
23100;DHT22;53791;50.696;4.396;2023-09-19T12:35:32;19.70;99.90
23100;DHT22;53791;50.696;4.396;2023-09-19T12:38:03;19.70;99.90
23100;DHT22;53791;50.696;4.396;2023-09-19T12:40:32;19.70;99.90
23100;DHT22;53791;50.696;4.396;2023-09-19T12:43:02;19.60;99.90
23100;DHT22;53791;50.696;4.396;2023-09-19T12:45:31;19.50;99.90
23100;DHT22;53791;50.696;4.396;2023-09-19T12:48:26;19.50;99.90
23100;DHT22;53791;50.696;4.396;2023-09-19T12:51:02;19.40;99.90
23100;DHT22;53791;50.696;4.396;2023-09-19T12:53:33;19.40;99.90
23100;DHT22;53791;50.696;4.396;2023-09-19T12:56:02;19.30;99.90
23100;DHT22;53791;50.696;4.396;2023-09-19T12:58:32;19.30;99.90
23100;DHT22;53791;50.696;4.396;2023-09-19T13:01:01;19.30;99.90
23100;DHT22;53791;50.696;4.396;2023-09-19T13:03:30;19.40;99.90
23100;DHT22;53791;50.696;4.396;2023-09-19T13:06:03;19.50;99.90
23100;DHT22;53791;50.696;4.396;2023-09-19T13:08:36;19.50;99.90
23100;DHT22;53791;50.696;4.396;2023-09-19T13:11:16;19.40;99.90
23100;DHT22;53791;50.696;4.396;2023-09-19T13:19:42;19.50;99.90
23100;DHT22;53791;50.696;4.396;2023-09-19T13:25:14;19.60;99.90
23100;DHT22;53791;50.696;4.396;2023-09-19T13:27:46;19.60;99.90
23100;DHT22;53791;50.696;4.396;2023-09-19T13:30:15;19.60;99.90
23100;DHT22;53791;50.696;4.396;2023-09-19T13:32:42;19.60;99.90
23100;DHT22;53791;50.696;4.396;2023-09-19T13:35:10;19.70;99.90
23100;DHT22;53791;50.696;4.396;2023-09-19T13:37:39;19.70;99.90
23100;DHT22;53791;50.696;4.396;2023-09-19T13:40:13;19.70;99.90
23100;DHT22;53791;50.696;4.396;2023-09-19T13:42:41;19.80;99.90
23100;DHT22;53791;50.696;4.396;2023-09-19T13:45:09;19.70;99.90
23100;DHT22;53791;50.696;4.396;2023-09-19T13:47:39;19.60;99.90
23100;DHT22;53791;50.696;4.396;2023-09-19T13:50:07;19.60;99.90
23100;DHT22;53791;50.696;4.396;2023-09-19T13:52:35;19.70;99.90
23100;DHT22;53791;50.696;4.396;2023-09-19T13:55:03;19.60;99.90
23100;DHT22;53791;50.696;4.396;2023-09-19T13:57:32;19.70;99.90
23100;DHT22;53791;50.696;4.396;2023-09-19T14:00:00;19.80;99.90
23100;DHT22;53791;50.696;4.396;2023-09-19T14:02:27;19.90;99.90
23100;DHT22;53791;50.696;4.396;2023-09-19T14:04:58;20.00;99.90
23100;DHT22;53791;50.696;4.396;2023-09-19T14:07:25;20.10;99.90
23100;DHT22;53791;50.696;4.396;2023-09-19T14:09:53;20.10;99.90
23100;DHT22;53791;50.696;4.396;2023-09-19T14:12:20;20.00;99.90
23100;DHT22;53791;50.696;4.396;2023-09-19T14:14:48;19.90;99.90
23100;DHT22;53791;50.696;4.396;2023-09-19T14:17:17;19.80;99.90
23100;DHT22;53791;50.696;4.396;2023-09-19T14:19:45;19.80;99.90
23100;DHT22;53791;50.696;4.396;2023-09-19T14:22:12;19.80;99.90
23100;DHT22;53791;50.696;4.396;2023-09-19T14:24:40;19.70;99.90
23100;DHT22;53791;50.696;4.396;2023-09-19T14:27:08;19.70;99.90
23100;DHT22;53791;50.696;4.396;2023-09-19T14:29:36;19.70;99.90
23100;DHT22;53791;50.696;4.396;2023-09-19T14:32:04;19.60;99.90
23100;DHT22;53791;50.696;4.396;2023-09-19T14:34:32;19.70;99.90
23100;DHT22;53791;50.696;4.396;2023-09-19T14:36:59;19.70;99.90
23100;DHT22;53791;50.696;4.396;2023-09-19T14:39:27;19.70;99.90
23100;DHT22;53791;50.696;4.396;2023-09-19T14:41:55;19.70;99.90
23100;DHT22;53791;50.696;4.396;2023-09-19T14:44:22;19.80;99.90
23100;DHT22;53791;50.696;4.396;2023-09-19T14:46:50;20.00;99.90
23100;DHT22;53791;50.696;4.396;2023-09-19T14:49:17;20.30;99.90
23100;DHT22;53791;50.696;4.396;2023-09-19T14:51:45;20.60;99.90
23100;DHT22;53791;50.696;4.396;2023-09-19T14:54:15;21.00;99.90
23100;DHT22;53791;50.696;4.396;2023-09-19T14:56:46;21.20;99.90
23100;DHT22;53791;50.696;4.396;2023-09-19T14:59:15;21.40;99.90
23100;DHT22;53791;50.696;4.396;2023-09-19T15:01:42;21.40;99.90
23100;DHT22;53791;50.696;4.396;2023-09-19T15:04:11;21.50;99.90
23100;DHT22;53791;50.696;4.396;2023-09-19T15:06:38;21.40;99.90
23100;DHT22;53791;50.696;4.396;2023-09-19T15:09:06;21.30;99.90
23100;DHT22;53791;50.696;4.396;2023-09-19T15:11:35;21.10;99.90
23100;DHT22;53791;50.696;4.396;2023-09-19T15:14:03;20.90;99.90
23100;DHT22;53791;50.696;4.396;2023-09-19T15:16:31;20.80;99.90
23100;DHT22;53791;50.696;4.396;2023-09-19T15:18:59;20.70;99.90
23100;DHT22;53791;50.696;4.396;2023-09-19T15:21:26;20.60;99.90
23100;DHT22;53791;50.696;4.396;2023-09-19T15:23:54;20.60;99.90
23100;DHT22;53791;50.696;4.396;2023-09-19T15:26:22;20.40;99.90
23100;DHT22;53791;50.696;4.396;2023-09-19T15:28:51;20.40;99.90
23100;DHT22;53791;50.696;4.396;2023-09-19T15:31:20;20.30;99.90
23100;DHT22;53791;50.696;4.396;2023-09-19T15:33:48;20.20;99.90
23100;DHT22;53791;50.696;4.396;2023-09-19T15:36:16;20.20;99.90
23100;DHT22;53791;50.696;4.396;2023-09-19T15:41:32;20.00;99.90
23100;DHT22;53791;50.696;4.396;2023-09-19T15:44:01;19.90;99.90
23100;DHT22;53791;50.696;4.396;2023-09-19T15:46:32;19.90;99.90
23100;DHT22;53791;50.696;4.396;2023-09-19T15:49:03;19.90;99.90
23100;DHT22;53791;50.696;4.396;2023-09-19T15:51:31;19.90;99.90
23100;DHT22;53791;50.696;4.396;2023-09-19T15:53:59;19.80;99.90
23100;DHT22;53791;50.696;4.396;2023-09-19T15:56:27;19.80;99.90
23100;DHT22;53791;50.696;4.396;2023-09-19T15:58:55;19.80;99.90
23100;DHT22;53791;50.696;4.396;2023-09-19T16:01:23;19.80;99.90
23100;DHT22;53791;50.696;4.396;2023-09-19T16:03:53;19.80;99.90
23100;DHT22;53791;50.696;4.396;2023-09-19T16:06:29;19.70;99.90
23100;DHT22;53791;50.696;4.396;2023-09-19T16:08:59;19.70;99.90
23100;DHT22;53791;50.696;4.396;2023-09-19T16:11:28;19.70;99.90
23100;DHT22;53791;50.696;4.396;2023-09-19T16:13:56;19.70;99.90
23100;DHT22;53791;50.696;4.396;2023-09-19T16:16:25;19.60;99.90
23100;DHT22;53791;50.696;4.396;2023-09-19T16:18:55;19.50;99.90
23100;DHT22;53791;50.696;4.396;2023-09-19T16:21:25;19.50;99.90
23100;DHT22;53791;50.696;4.396;2023-09-19T16:23:55;19.50;99.90
23100;DHT22;53791;50.696;4.396;2023-09-19T16:26:23;19.50;99.90
23100;DHT22;53791;50.696;4.396;2023-09-19T16:28:55;19.50;99.90
23100;DHT22;53791;50.696;4.396;2023-09-19T16:31:25;19.50;99.90
23100;DHT22;53791;50.696;4.396;2023-09-19T16:33:53;19.50;99.90